sensor_id;sensor_type;location;lat;lon;timestamp;P1;durP1;ratioP1;P2;durP2;ratioP2
36355;SDS011;22384;54.302;18.596;2022-08-11T00:02:06;8.57;;;3.88;;
36355;SDS011;22384;54.302;18.596;2022-08-11T00:04:35;5.90;;;3.80;;
36355;SDS011;22384;54.302;18.596;2022-08-11T00:07:03;9.30;;;3.90;;
36355;SDS011;22384;54.302;18.596;2022-08-11T00:09:35;9.93;;;4.20;;
36355;SDS011;22384;54.302;18.596;2022-08-11T00:12:02;7.82;;;4.15;;
36355;SDS011;22384;54.302;18.596;2022-08-11T00:14:31;6.78;;;3.97;;
36355;SDS011;22384;54.302;18.596;2022-08-11T00:17:00;5.72;;;4.25;;
36355;SDS011;22384;54.302;18.596;2022-08-11T00:19:37;6.45;;;4.30;;
36355;SDS011;22384;54.302;18.596;2022-08-11T00:22:05;6.75;;;3.78;;
36355;SDS011;22384;54.302;18.596;2022-08-11T00:24:33;6.32;;;3.88;;
36355;SDS011;22384;54.302;18.596;2022-08-11T00:27:00;9.13;;;4.00;;
36355;SDS011;22384;54.302;18.596;2022-08-11T00:29:26;6.95;;;3.95;;
36355;SDS011;22384;54.302;18.596;2022-08-11T00:31:53;5.70;;;4.18;;
36355;SDS011;22384;54.302;18.596;2022-08-11T00:34:24;5.22;;;4.25;;
36355;SDS011;22384;54.302;18.596;2022-08-11T00:37:07;5.75;;;3.72;;
36355;SDS011;22384;54.302;18.596;2022-08-11T00:39:35;7.38;;;3.72;;
36355;SDS011;22384;54.302;18.596;2022-08-11T00:44:41;8.80;;;4.55;;
36355;SDS011;22384;54.302;18.596;2022-08-11T00:49:45;7.10;;;4.53;;
36355;SDS011;22384;54.302;18.596;2022-08-11T00:57:52;7.43;;;4.13;;
36355;SDS011;22384;54.302;18.596;2022-08-11T01:00:11;7.70;;;4.10;;
36355;SDS011;22384;54.302;18.596;2022-08-11T01:18:39;6.00;;;3.92;;
36355;SDS011;22384;54.302;18.596;2022-08-11T01:29:10;8.95;;;4.38;;
36355;SDS011;22384;54.302;18.596;2022-08-11T01:42:29;10.10;;;5.22;;
36355;SDS011;22384;54.302;18.596;2022-08-11T01:53:20;12.60;;;6.22;;
36355;SDS011;22384;54.302;18.596;2022-08-11T02:01:12;7.22;;;5.07;;
36355;SDS011;22384;54.302;18.596;2022-08-11T02:03:58;9.52;;;4.93;;
36355;SDS011;22384;54.302;18.596;2022-08-11T02:12:09;12.57;;;5.60;;
36355;SDS011;22384;54.302;18.596;2022-08-11T02:14:38;9.93;;;5.57;;
36355;SDS011;22384;54.302;18.596;2022-08-11T02:17:18;10.48;;;5.57;;
36355;SDS011;22384;54.302;18.596;2022-08-11T02:27:49;9.02;;;5.75;;
36355;SDS011;22384;54.302;18.596;2022-08-11T02:30:20;10.82;;;5.60;;
36355;SDS011;22384;54.302;18.596;2022-08-11T02:32:50;9.23;;;5.28;;
36355;SDS011;22384;54.302;18.596;2022-08-11T02:35:55;9.83;;;5.87;;
36355;SDS011;22384;54.302;18.596;2022-08-11T02:43:31;11.00;;;5.15;;
36355;SDS011;22384;54.302;18.596;2022-08-11T02:46:05;10.05;;;4.82;;
36355;SDS011;22384;54.302;18.596;2022-08-11T02:49:04;12.27;;;5.30;;
36355;SDS011;22384;54.302;18.596;2022-08-11T02:51:59;9.55;;;5.32;;
36355;SDS011;22384;54.302;18.596;2022-08-11T02:59:46;8.25;;;5.13;;
36355;SDS011;22384;54.302;18.596;2022-08-11T03:07:33;10.50;;;5.88;;
36355;SDS011;22384;54.302;18.596;2022-08-11T03:12:32;8.55;;;5.18;;
36355;SDS011;22384;54.302;18.596;2022-08-11T03:15:23;9.43;;;5.05;;
36355;SDS011;22384;54.302;18.596;2022-08-11T03:18:14;10.02;;;5.43;;
36355;SDS011;22384;54.302;18.596;2022-08-11T03:20:48;12.32;;;5.90;;
36355;SDS011;22384;54.302;18.596;2022-08-11T03:23:24;16.00;;;6.28;;
36355;SDS011;22384;54.302;18.596;2022-08-11T03:26:04;13.20;;;5.28;;
36355;SDS011;22384;54.302;18.596;2022-08-11T03:28:43;9.30;;;5.80;;
36355;SDS011;22384;54.302;18.596;2022-08-11T03:33:53;11.82;;;6.82;;
36355;SDS011;22384;54.302;18.596;2022-08-11T03:39:06;11.05;;;6.05;;
36355;SDS011;22384;54.302;18.596;2022-08-11T03:41:39;10.45;;;6.78;;
36355;SDS011;22384;54.302;18.596;2022-08-11T03:44:24;13.80;;;7.47;;
36355;SDS011;22384;54.302;18.596;2022-08-11T03:47:07;12.15;;;6.70;;
36355;SDS011;22384;54.302;18.596;2022-08-11T03:52:21;15.60;;;7.15;;
36355;SDS011;22384;54.302;18.596;2022-08-11T03:57:41;24.63;;;6.50;;
36355;SDS011;22384;54.302;18.596;2022-08-11T04:13:23;16.67;;;6.35;;
36355;SDS011;22384;54.302;18.596;2022-08-11T04:16:05;19.63;;;6.53;;
36355;SDS011;22384;54.302;18.596;2022-08-11T04:21:41;21.35;;;6.80;;
36355;SDS011;22384;54.302;18.596;2022-08-11T04:24:26;13.95;;;6.32;;
36355;SDS011;22384;54.302;18.596;2022-08-11T04:27:09;12.73;;;6.75;;
36355;SDS011;22384;54.302;18.596;2022-08-11T04:54:20;20.67;;;6.25;;
36355;SDS011;22384;54.302;18.596;2022-08-11T04:57:11;16.65;;;5.03;;
36355;SDS011;22384;54.302;18.596;2022-08-11T05:00:16;17.00;;;5.57;;
36355;SDS011;22384;54.302;18.596;2022-08-11T05:08:14;14.80;;;4.90;;
36355;SDS011;22384;54.302;18.596;2022-08-11T05:11:06;13.68;;;4.97;;
36355;SDS011;22384;54.302;18.596;2022-08-11T05:13:46;15.27;;;4.53;;
36355;SDS011;22384;54.302;18.596;2022-08-11T05:19:24;14.05;;;5.07;;
36355;SDS011;22384;54.302;18.596;2022-08-11T05:22:10;12.75;;;4.80;;
36355;SDS011;22384;54.302;18.596;2022-08-11T05:25:00;15.75;;;4.72;;
36355;SDS011;22384;54.302;18.596;2022-08-11T05:30:38;10.65;;;3.50;;
36355;SDS011;22384;54.302;18.596;2022-08-11T05:36:44;4.18;;;2.75;;
36355;SDS011;22384;54.302;18.596;2022-08-11T05:39:14;12.45;;;2.70;;
36355;SDS011;22384;54.302;18.596;2022-08-11T05:41:59;4.07;;;2.58;;
36355;SDS011;22384;54.302;18.596;2022-08-11T05:44:44;8.02;;;3.45;;
36355;SDS011;22384;54.302;18.596;2022-08-11T05:47:30;10.73;;;3.70;;
36355;SDS011;22384;54.302;18.596;2022-08-11T05:50:18;12.43;;;3.50;;
36355;SDS011;22384;54.302;18.596;2022-08-11T05:53:03;6.78;;;2.92;;
36355;SDS011;22384;54.302;18.596;2022-08-11T05:55:52;4.82;;;3.00;;
36355;SDS011;22384;54.302;18.596;2022-08-11T05:58:38;6.72;;;3.65;;
36355;SDS011;22384;54.302;18.596;2022-08-11T06:01:05;8.40;;;3.30;;
36355;SDS011;22384;54.302;18.596;2022-08-11T06:03:32;7.57;;;3.72;;
36355;SDS011;22384;54.302;18.596;2022-08-11T06:06:22;4.30;;;2.72;;
36355;SDS011;22384;54.302;18.596;2022-08-11T06:08:49;4.43;;;2.83;;
36355;SDS011;22384;54.302;18.596;2022-08-11T06:11:20;8.43;;;3.08;;
36355;SDS011;22384;54.302;18.596;2022-08-11T06:13:46;5.20;;;2.92;;
36355;SDS011;22384;54.302;18.596;2022-08-11T06:16:13;6.93;;;2.47;;
36355;SDS011;22384;54.302;18.596;2022-08-11T06:18:50;5.50;;;2.65;;
36355;SDS011;22384;54.302;18.596;2022-08-11T06:21:22;7.25;;;2.35;;
36355;SDS011;22384;54.302;18.596;2022-08-11T06:23:49;8.63;;;2.95;;
36355;SDS011;22384;54.302;18.596;2022-08-11T06:26:15;5.88;;;2.25;;
36355;SDS011;22384;54.302;18.596;2022-08-11T06:31:20;6.45;;;2.80;;
36355;SDS011;22384;54.302;18.596;2022-08-11T06:36:54;4.57;;;2.38;;
36355;SDS011;22384;54.302;18.596;2022-08-11T06:42:31;3.60;;;2.20;;
36355;SDS011;22384;54.302;18.596;2022-08-11T06:48:04;7.55;;;2.45;;
36355;SDS011;22384;54.302;18.596;2022-08-11T06:50:35;7.78;;;2.35;;
36355;SDS011;22384;54.302;18.596;2022-08-11T06:53:19;3.83;;;2.17;;
36355;SDS011;22384;54.302;18.596;2022-08-11T06:55:48;2.78;;;2.40;;
36355;SDS011;22384;54.302;18.596;2022-08-11T06:58:38;4.05;;;2.40;;
36355;SDS011;22384;54.302;18.596;2022-08-11T07:01:28;9.60;;;2.25;;
36355;SDS011;22384;54.302;18.596;2022-08-11T07:04:08;3.67;;;2.33;;
36355;SDS011;22384;54.302;18.596;2022-08-11T07:13:11;7.53;;;2.60;;
36355;SDS011;22384;54.302;18.596;2022-08-11T07:16:00;6.28;;;2.50;;
36355;SDS011;22384;54.302;18.596;2022-08-11T07:18:29;6.85;;;2.42;;
36355;SDS011;22384;54.302;18.596;2022-08-11T07:24:25;4.43;;;2.25;;
36355;SDS011;22384;54.302;18.596;2022-08-11T07:27:13;3.20;;;2.30;;
36355;SDS011;22384;54.302;18.596;2022-08-11T07:30:03;6.43;;;1.77;;
36355;SDS011;22384;54.302;18.596;2022-08-11T07:35:12;7.65;;;2.20;;
36355;SDS011;22384;54.302;18.596;2022-08-11T07:41:02;2.35;;;2.10;;
36355;SDS011;22384;54.302;18.596;2022-08-11T07:43:31;4.43;;;2.00;;
36355;SDS011;22384;54.302;18.596;2022-08-11T07:46:03;5.10;;;2.80;;
36355;SDS011;22384;54.302;18.596;2022-08-11T07:49:00;4.70;;;2.63;;
36355;SDS011;22384;54.302;18.596;2022-08-11T07:51:45;3.15;;;1.90;;
36355;SDS011;22384;54.302;18.596;2022-08-11T07:54:34;4.53;;;2.17;;
36355;SDS011;22384;54.302;18.596;2022-08-11T07:57:09;4.53;;;2.00;;
36355;SDS011;22384;54.302;18.596;2022-08-11T07:59:57;3.70;;;2.00;;
36355;SDS011;22384;54.302;18.596;2022-08-11T08:05:56;4.97;;;1.92;;
36355;SDS011;22384;54.302;18.596;2022-08-11T08:08:44;4.95;;;2.20;;
36355;SDS011;22384;54.302;18.596;2022-08-11T08:11:32;4.28;;;1.80;;
36355;SDS011;22384;54.302;18.596;2022-08-11T08:14:16;3.08;;;1.80;;
36355;SDS011;22384;54.302;18.596;2022-08-11T08:17:04;3.40;;;2.05;;
36355;SDS011;22384;54.302;18.596;2022-08-11T08:19:50;7.13;;;2.00;;
36355;SDS011;22384;54.302;18.596;2022-08-11T08:22:17;2.88;;;1.85;;
36355;SDS011;22384;54.302;18.596;2022-08-11T08:24:44;2.63;;;2.10;;
36355;SDS011;22384;54.302;18.596;2022-08-11T08:27:12;6.78;;;2.10;;
36355;SDS011;22384;54.302;18.596;2022-08-11T08:29:38;11.10;;;2.30;;
36355;SDS011;22384;54.302;18.596;2022-08-11T08:32:23;7.55;;;2.70;;
36355;SDS011;22384;54.302;18.596;2022-08-11T08:34:52;8.10;;;3.00;;
36355;SDS011;22384;54.302;18.596;2022-08-11T08:37:22;4.27;;;2.53;;
36355;SDS011;22384;54.302;18.596;2022-08-11T08:39:49;3.75;;;2.35;;
36355;SDS011;22384;54.302;18.596;2022-08-11T08:42:16;7.10;;;2.75;;
36355;SDS011;22384;54.302;18.596;2022-08-11T08:44:49;5.40;;;2.83;;
36355;SDS011;22384;54.302;18.596;2022-08-11T08:47:17;12.82;;;2.78;;
36355;SDS011;22384;54.302;18.596;2022-08-11T08:49:45;5.93;;;2.58;;
36355;SDS011;22384;54.302;18.596;2022-08-11T08:52:13;11.63;;;3.13;;
36355;SDS011;22384;54.302;18.596;2022-08-11T08:54:41;5.82;;;2.80;;
36355;SDS011;22384;54.302;18.596;2022-08-11T08:57:08;9.50;;;2.90;;
36355;SDS011;22384;54.302;18.596;2022-08-11T08:59:37;5.97;;;2.60;;
36355;SDS011;22384;54.302;18.596;2022-08-11T09:02:04;7.38;;;2.70;;
36355;SDS011;22384;54.302;18.596;2022-08-11T09:04:31;9.45;;;2.58;;
36355;SDS011;22384;54.302;18.596;2022-08-11T09:06:59;3.58;;;2.42;;
36355;SDS011;22384;54.302;18.596;2022-08-11T09:09:28;11.63;;;2.95;;
36355;SDS011;22384;54.302;18.596;2022-08-11T09:11:56;6.93;;;2.72;;
36355;SDS011;22384;54.302;18.596;2022-08-11T09:14:23;5.63;;;2.90;;
36355;SDS011;22384;54.302;18.596;2022-08-11T09:17:10;6.53;;;2.60;;
36355;SDS011;22384;54.302;18.596;2022-08-11T09:19:36;6.10;;;2.50;;
36355;SDS011;22384;54.302;18.596;2022-08-11T09:22:02;10.57;;;2.40;;
36355;SDS011;22384;54.302;18.596;2022-08-11T09:24:47;6.90;;;2.35;;
36355;SDS011;22384;54.302;18.596;2022-08-11T09:27:33;7.57;;;2.53;;
36355;SDS011;22384;54.302;18.596;2022-08-11T09:30:01;8.40;;;2.38;;
36355;SDS011;22384;54.302;18.596;2022-08-11T09:32:28;4.95;;;2.30;;
36355;SDS011;22384;54.302;18.596;2022-08-11T09:34:55;6.70;;;2.28;;
36355;SDS011;22384;54.302;18.596;2022-08-11T09:37:24;3.80;;;1.85;;
36355;SDS011;22384;54.302;18.596;2022-08-11T09:40:09;8.43;;;2.25;;
36355;SDS011;22384;54.302;18.596;2022-08-11T09:42:55;2.92;;;2.00;;
36355;SDS011;22384;54.302;18.596;2022-08-11T09:45:45;5.57;;;1.77;;
36355;SDS011;22384;54.302;18.596;2022-08-11T09:48:19;9.85;;;2.03;;
36355;SDS011;22384;54.302;18.596;2022-08-11T09:50:49;5.82;;;1.60;;
36355;SDS011;22384;54.302;18.596;2022-08-11T09:53:16;3.08;;;1.88;;
36355;SDS011;22384;54.302;18.596;2022-08-11T09:55:43;5.55;;;1.58;;
36355;SDS011;22384;54.302;18.596;2022-08-11T09:58:11;8.68;;;1.50;;
36355;SDS011;22384;54.302;18.596;2022-08-11T10:00:37;11.93;;;2.00;;
36355;SDS011;22384;54.302;18.596;2022-08-11T10:03:09;6.17;;;1.73;;
36355;SDS011;22384;54.302;18.596;2022-08-11T10:05:37;4.72;;;1.70;;
36355;SDS011;22384;54.302;18.596;2022-08-11T10:08:26;3.22;;;1.63;;
36355;SDS011;22384;54.302;18.596;2022-08-11T10:10:54;6.18;;;1.90;;
36355;SDS011;22384;54.302;18.596;2022-08-11T10:13:21;9.07;;;1.80;;
36355;SDS011;22384;54.302;18.596;2022-08-11T10:15:51;8.88;;;1.73;;
36355;SDS011;22384;54.302;18.596;2022-08-11T10:18:29;6.85;;;1.60;;
36355;SDS011;22384;54.302;18.596;2022-08-11T10:23:39;2.17;;;1.20;;
36355;SDS011;22384;54.302;18.596;2022-08-11T10:26:28;2.00;;;1.15;;
36355;SDS011;22384;54.302;18.596;2022-08-11T10:29:13;5.28;;;1.27;;
36355;SDS011;22384;54.302;18.596;2022-08-11T10:31:58;1.52;;;1.10;;
36355;SDS011;22384;54.302;18.596;2022-08-11T10:34:44;6.15;;;1.20;;
36355;SDS011;22384;54.302;18.596;2022-08-11T10:37:11;6.30;;;1.25;;
36355;SDS011;22384;54.302;18.596;2022-08-11T10:39:38;1.27;;;1.15;;
36355;SDS011;22384;54.302;18.596;2022-08-11T10:42:05;9.63;;;1.77;;
36355;SDS011;22384;54.302;18.596;2022-08-11T10:44:51;1.83;;;1.42;;
36355;SDS011;22384;54.302;18.596;2022-08-11T10:47:18;1.33;;;0.90;;
36355;SDS011;22384;54.302;18.596;2022-08-11T10:50:03;4.80;;;1.00;;
36355;SDS011;22384;54.302;18.596;2022-08-11T10:52:51;6.95;;;0.88;;
36355;SDS011;22384;54.302;18.596;2022-08-11T10:55:36;5.05;;;1.13;;
36355;SDS011;22384;54.302;18.596;2022-08-11T10:58:21;8.82;;;0.80;;
36355;SDS011;22384;54.302;18.596;2022-08-11T11:01:07;4.25;;;0.80;;
36355;SDS011;22384;54.302;18.596;2022-08-11T11:03:34;1.35;;;0.80;;
36355;SDS011;22384;54.302;18.596;2022-08-11T11:06:06;4.00;;;0.70;;
36355;SDS011;22384;54.302;18.596;2022-08-11T11:08:36;4.80;;;0.80;;
36355;SDS011;22384;54.302;18.596;2022-08-11T11:11:23;3.40;;;0.90;;
36355;SDS011;22384;54.302;18.596;2022-08-11T11:14:11;5.30;;;0.77;;
36355;SDS011;22384;54.302;18.596;2022-08-11T11:16:58;2.20;;;1.05;;
36355;SDS011;22384;54.302;18.596;2022-08-11T11:19:39;1.58;;;0.93;;
36355;SDS011;22384;54.302;18.596;2022-08-11T11:22:07;0.90;;;0.70;;
36355;SDS011;22384;54.302;18.596;2022-08-11T11:27:35;3.75;;;0.90;;
36355;SDS011;22384;54.302;18.596;2022-08-11T11:30:07;5.88;;;0.98;;
36355;SDS011;22384;54.302;18.596;2022-08-11T11:35:03;3.35;;;0.80;;
36355;SDS011;22384;54.302;18.596;2022-08-11T11:37:33;1.83;;;0.70;;
36355;SDS011;22384;54.302;18.596;2022-08-11T11:39:59;1.83;;;1.15;;
36355;SDS011;22384;54.302;18.596;2022-08-11T11:42:26;3.13;;;0.77;;
36355;SDS011;22384;54.302;18.596;2022-08-11T11:44:53;0.70;;;0.70;;
36355;SDS011;22384;54.302;18.596;2022-08-11T11:47:19;2.90;;;1.02;;
36355;SDS011;22384;54.302;18.596;2022-08-11T11:49:47;2.20;;;0.80;;
36355;SDS011;22384;54.302;18.596;2022-08-11T11:52:15;5.55;;;0.90;;
36355;SDS011;22384;54.302;18.596;2022-08-11T11:54:43;0.85;;;0.70;;
36355;SDS011;22384;54.302;18.596;2022-08-11T11:57:10;3.33;;;1.10;;
36355;SDS011;22384;54.302;18.596;2022-08-11T11:59:55;2.92;;;1.00;;
36355;SDS011;22384;54.302;18.596;2022-08-11T12:02:40;3.58;;;0.80;;
36355;SDS011;22384;54.302;18.596;2022-08-11T12:05:08;2.10;;;0.70;;
36355;SDS011;22384;54.302;18.596;2022-08-11T12:07:35;3.45;;;0.75;;
36355;SDS011;22384;54.302;18.596;2022-08-11T12:10:20;2.95;;;0.90;;
36355;SDS011;22384;54.302;18.596;2022-08-11T12:12:47;1.10;;;1.05;;
36355;SDS011;22384;54.302;18.596;2022-08-11T12:15:33;4.03;;;0.98;;
36355;SDS011;22384;54.302;18.596;2022-08-11T12:18:00;1.70;;;1.00;;
36355;SDS011;22384;54.302;18.596;2022-08-11T12:20:27;2.05;;;0.80;;
36355;SDS011;22384;54.302;18.596;2022-08-11T12:22:54;6.15;;;0.98;;
36355;SDS011;22384;54.302;18.596;2022-08-11T12:25:39;2.58;;;1.00;;
36355;SDS011;22384;54.302;18.596;2022-08-11T12:28:24;2.25;;;0.85;;
36355;SDS011;22384;54.302;18.596;2022-08-11T12:30:54;2.05;;;0.80;;
36355;SDS011;22384;54.302;18.596;2022-08-11T12:33:20;1.40;;;1.05;;
36355;SDS011;22384;54.302;18.596;2022-08-11T12:35:55;2.33;;;0.98;;
36355;SDS011;22384;54.302;18.596;2022-08-11T12:38:38;2.00;;;0.90;;
36355;SDS011;22384;54.302;18.596;2022-08-11T12:41:05;2.03;;;0.98;;
36355;SDS011;22384;54.302;18.596;2022-08-11T12:43:50;1.92;;;1.10;;
36355;SDS011;22384;54.302;18.596;2022-08-11T12:46:35;2.05;;;0.80;;
36355;SDS011;22384;54.302;18.596;2022-08-11T12:49:14;2.10;;;0.90;;
36355;SDS011;22384;54.302;18.596;2022-08-11T12:52:03;2.67;;;0.80;;
36355;SDS011;22384;54.302;18.596;2022-08-11T12:54:34;1.85;;;1.00;;
36355;SDS011;22384;54.302;18.596;2022-08-11T12:57:06;4.45;;;0.77;;
36355;SDS011;22384;54.302;18.596;2022-08-11T12:59:53;2.92;;;0.88;;
36355;SDS011;22384;54.302;18.596;2022-08-11T13:02:39;1.65;;;0.90;;
36355;SDS011;22384;54.302;18.596;2022-08-11T13:05:24;8.93;;;1.30;;
36355;SDS011;22384;54.302;18.596;2022-08-11T13:07:51;2.53;;;1.00;;
36355;SDS011;22384;54.302;18.596;2022-08-11T13:10:18;2.78;;;0.88;;
36355;SDS011;22384;54.302;18.596;2022-08-11T13:13:07;4.15;;;0.85;;
36355;SDS011;22384;54.302;18.596;2022-08-11T13:15:39;2.97;;;0.90;;
36355;SDS011;22384;54.302;18.596;2022-08-11T13:18:06;1.83;;;0.80;;
36355;SDS011;22384;54.302;18.596;2022-08-11T13:20:39;1.10;;;0.70;;
36355;SDS011;22384;54.302;18.596;2022-08-11T13:23:08;1.35;;;0.70;;
36355;SDS011;22384;54.302;18.596;2022-08-11T13:25:39;4.82;;;1.30;;
36355;SDS011;22384;54.302;18.596;2022-08-11T13:28:08;1.17;;;0.70;;
36355;SDS011;22384;54.302;18.596;2022-08-11T13:30:45;0.90;;;0.70;;
36355;SDS011;22384;54.302;18.596;2022-08-11T13:33:30;1.65;;;1.00;;
36355;SDS011;22384;54.302;18.596;2022-08-11T13:35:57;2.38;;;0.95;;
36355;SDS011;22384;54.302;18.596;2022-08-11T13:38:27;5.05;;;1.33;;
36355;SDS011;22384;54.302;18.596;2022-08-11T13:40:54;1.25;;;0.80;;
36355;SDS011;22384;54.302;18.596;2022-08-11T13:43:23;1.37;;;0.70;;
36355;SDS011;22384;54.302;18.596;2022-08-11T13:45:50;3.80;;;0.80;;
36355;SDS011;22384;54.302;18.596;2022-08-11T13:48:37;3.42;;;0.90;;
36355;SDS011;22384;54.302;18.596;2022-08-11T13:51:04;0.70;;;0.70;;
36355;SDS011;22384;54.302;18.596;2022-08-11T13:53:59;3.63;;;1.02;;
36355;SDS011;22384;54.302;18.596;2022-08-11T13:56:41;6.22;;;0.88;;
36355;SDS011;22384;54.302;18.596;2022-08-11T13:59:08;2.55;;;0.80;;
36355;SDS011;22384;54.302;18.596;2022-08-11T14:01:38;5.30;;;1.00;;
36355;SDS011;22384;54.302;18.596;2022-08-11T14:04:15;1.40;;;0.80;;
36355;SDS011;22384;54.302;18.596;2022-08-11T14:06:44;1.77;;;0.70;;
36355;SDS011;22384;54.302;18.596;2022-08-11T14:09:11;2.70;;;0.80;;
36355;SDS011;22384;54.302;18.596;2022-08-11T14:11:39;1.23;;;0.80;;
36355;SDS011;22384;54.302;18.596;2022-08-11T14:14:25;0.60;;;0.60;;
36355;SDS011;22384;54.302;18.596;2022-08-11T14:16:57;1.45;;;0.77;;
36355;SDS011;22384;54.302;18.596;2022-08-11T14:19:26;5.43;;;1.55;;
36355;SDS011;22384;54.302;18.596;2022-08-11T14:21:53;3.17;;;1.15;;
36355;SDS011;22384;54.302;18.596;2022-08-11T14:24:40;5.55;;;1.13;;
36355;SDS011;22384;54.302;18.596;2022-08-11T14:27:08;2.58;;;1.15;;
36355;SDS011;22384;54.302;18.596;2022-08-11T14:29:38;1.70;;;0.77;;
36355;SDS011;22384;54.302;18.596;2022-08-11T14:32:27;3.75;;;0.82;;
36355;SDS011;22384;54.302;18.596;2022-08-11T14:34:52;3.40;;;1.20;;
36355;SDS011;22384;54.302;18.596;2022-08-11T14:37:22;3.05;;;0.77;;
36355;SDS011;22384;54.302;18.596;2022-08-11T14:40:17;5.78;;;0.73;;
36355;SDS011;22384;54.302;18.596;2022-08-11T14:43:04;1.40;;;0.80;;
36355;SDS011;22384;54.302;18.596;2022-08-11T14:45:49;8.05;;;1.02;;
36355;SDS011;22384;54.302;18.596;2022-08-11T14:48:35;6.03;;;1.40;;
36355;SDS011;22384;54.302;18.596;2022-08-11T14:51:22;2.75;;;1.00;;
36355;SDS011;22384;54.302;18.596;2022-08-11T14:53:48;1.95;;;1.08;;
36355;SDS011;22384;54.302;18.596;2022-08-11T14:56:35;3.38;;;0.90;;
36355;SDS011;22384;54.302;18.596;2022-08-11T14:59:01;1.13;;;0.80;;
36355;SDS011;22384;54.302;18.596;2022-08-11T15:01:27;4.53;;;1.40;;
36355;SDS011;22384;54.302;18.596;2022-08-11T15:04:12;3.85;;;0.88;;
36355;SDS011;22384;54.302;18.596;2022-08-11T15:06:40;3.78;;;0.98;;
36355;SDS011;22384;54.302;18.596;2022-08-11T15:09:12;1.63;;;0.80;;
36355;SDS011;22384;54.302;18.596;2022-08-11T15:11:48;4.38;;;1.00;;
36355;SDS011;22384;54.302;18.596;2022-08-11T15:14:56;4.15;;;1.10;;
36355;SDS011;22384;54.302;18.596;2022-08-11T15:17:41;1.77;;;0.82;;
36355;SDS011;22384;54.302;18.596;2022-08-11T15:20:09;7.60;;;1.10;;
36355;SDS011;22384;54.302;18.596;2022-08-11T15:22:55;3.20;;;0.98;;
36355;SDS011;22384;54.302;18.596;2022-08-11T15:25:42;1.25;;;0.82;;
36355;SDS011;22384;54.302;18.596;2022-08-11T15:28:13;1.25;;;0.80;;
36355;SDS011;22384;54.302;18.596;2022-08-11T15:31:06;1.92;;;0.88;;
36355;SDS011;22384;54.302;18.596;2022-08-11T15:34:05;1.65;;;1.02;;
36355;SDS011;22384;54.302;18.596;2022-08-11T15:37:07;2.25;;;0.80;;
36355;SDS011;22384;54.302;18.596;2022-08-11T15:42:48;1.52;;;0.82;;
36355;SDS011;22384;54.302;18.596;2022-08-11T15:45:33;3.08;;;0.90;;
36355;SDS011;22384;54.302;18.596;2022-08-11T15:48:21;5.32;;;1.10;;
36355;SDS011;22384;54.302;18.596;2022-08-11T15:50:51;1.33;;;1.00;;
36355;SDS011;22384;54.302;18.596;2022-08-11T15:55:53;0.95;;;0.80;;
36355;SDS011;22384;54.302;18.596;2022-08-11T15:58:25;2.00;;;0.70;;
36355;SDS011;22384;54.302;18.596;2022-08-11T16:01:14;3.28;;;0.95;;
36355;SDS011;22384;54.302;18.596;2022-08-11T16:04:00;4.30;;;1.10;;
36355;SDS011;22384;54.302;18.596;2022-08-11T16:09:39;1.25;;;0.80;;
36355;SDS011;22384;54.302;18.596;2022-08-11T16:12:28;2.40;;;0.68;;
36355;SDS011;22384;54.302;18.596;2022-08-11T16:15:00;3.10;;;0.82;;
36355;SDS011;22384;54.302;18.596;2022-08-11T16:17:58;4.82;;;0.82;;
36355;SDS011;22384;54.302;18.596;2022-08-11T16:20:27;2.83;;;0.90;;
36355;SDS011;22384;54.302;18.596;2022-08-11T16:22:56;2.33;;;1.02;;
36355;SDS011;22384;54.302;18.596;2022-08-11T16:25:23;2.67;;;0.65;;
36355;SDS011;22384;54.302;18.596;2022-08-11T16:28:11;0.82;;;0.73;;
36355;SDS011;22384;54.302;18.596;2022-08-11T16:30:50;0.90;;;0.70;;
36355;SDS011;22384;54.302;18.596;2022-08-11T16:33:21;3.20;;;0.90;;
36355;SDS011;22384;54.302;18.596;2022-08-11T16:36:06;3.67;;;0.80;;
36355;SDS011;22384;54.302;18.596;2022-08-11T16:38:52;0.90;;;0.80;;
36355;SDS011;22384;54.302;18.596;2022-08-11T16:41:20;1.58;;;0.90;;
36355;SDS011;22384;54.302;18.596;2022-08-11T16:44:06;2.45;;;0.80;;
36355;SDS011;22384;54.302;18.596;2022-08-11T16:46:53;1.85;;;0.68;;
36355;SDS011;22384;54.302;18.596;2022-08-11T16:49:27;3.03;;;0.90;;
36355;SDS011;22384;54.302;18.596;2022-08-11T16:51:55;1.15;;;0.93;;
36355;SDS011;22384;54.302;18.596;2022-08-11T16:54:21;1.05;;;1.02;;
36355;SDS011;22384;54.302;18.596;2022-08-11T16:56:48;15.27;;;1.60;;
36355;SDS011;22384;54.302;18.596;2022-08-11T16:59:31;4.20;;;0.85;;
36355;SDS011;22384;54.302;18.596;2022-08-11T17:02:01;6.03;;;1.30;;
36355;SDS011;22384;54.302;18.596;2022-08-11T17:07:13;2.63;;;1.13;;
36355;SDS011;22384;54.302;18.596;2022-08-11T17:09:59;1.02;;;0.80;;
36355;SDS011;22384;54.302;18.596;2022-08-11T17:12:44;4.05;;;1.50;;
36355;SDS011;22384;54.302;18.596;2022-08-11T17:15:32;1.98;;;1.15;;
36355;SDS011;22384;54.302;18.596;2022-08-11T17:18:18;1.80;;;1.00;;
36355;SDS011;22384;54.302;18.596;2022-08-11T17:21:13;2.13;;;1.33;;
36355;SDS011;22384;54.302;18.596;2022-08-11T17:23:40;1.10;;;1.00;;
36355;SDS011;22384;54.302;18.596;2022-08-11T17:26:32;2.63;;;1.27;;
36355;SDS011;22384;54.302;18.596;2022-08-11T17:31:52;2.40;;;0.85;;
36355;SDS011;22384;54.302;18.596;2022-08-11T17:34:37;1.42;;;1.10;;
36355;SDS011;22384;54.302;18.596;2022-08-11T17:37:23;2.55;;;1.20;;
36355;SDS011;22384;54.302;18.596;2022-08-11T17:39:53;2.30;;;1.25;;
36355;SDS011;22384;54.302;18.596;2022-08-11T17:42:19;2.70;;;1.43;;
36355;SDS011;22384;54.302;18.596;2022-08-11T17:48:10;1.10;;;0.98;;
36355;SDS011;22384;54.302;18.596;2022-08-11T17:50:53;1.48;;;1.23;;
36355;SDS011;22384;54.302;18.596;2022-08-11T17:53:20;5.53;;;1.80;;
36355;SDS011;22384;54.302;18.596;2022-08-11T17:56:05;3.10;;;1.38;;
36355;SDS011;22384;54.302;18.596;2022-08-11T17:58:58;3.15;;;1.20;;
36355;SDS011;22384;54.302;18.596;2022-08-11T18:01:43;2.13;;;1.10;;
36355;SDS011;22384;54.302;18.596;2022-08-11T18:04:18;1.45;;;1.20;;
36355;SDS011;22384;54.302;18.596;2022-08-11T18:06:46;3.03;;;1.60;;
36355;SDS011;22384;54.302;18.596;2022-08-11T18:09:16;3.53;;;1.08;;
36355;SDS011;22384;54.302;18.596;2022-08-11T18:12:03;2.00;;;1.00;;
36355;SDS011;22384;54.302;18.596;2022-08-11T18:14:49;4.78;;;1.30;;
36355;SDS011;22384;54.302;18.596;2022-08-11T18:17:35;1.17;;;0.98;;
36355;SDS011;22384;54.302;18.596;2022-08-11T18:20:20;3.88;;;1.30;;
36355;SDS011;22384;54.302;18.596;2022-08-11T18:23:08;3.15;;;1.00;;
36355;SDS011;22384;54.302;18.596;2022-08-11T18:25:54;2.35;;;0.95;;
36355;SDS011;22384;54.302;18.596;2022-08-11T18:28:43;3.03;;;1.30;;
36355;SDS011;22384;54.302;18.596;2022-08-11T18:31:29;5.13;;;2.90;;
36355;SDS011;22384;54.302;18.596;2022-08-11T18:34:17;7.68;;;3.42;;
36355;SDS011;22384;54.302;18.596;2022-08-11T18:37:09;9.52;;;3.03;;
36355;SDS011;22384;54.302;18.596;2022-08-11T18:39:56;6.47;;;2.90;;
36355;SDS011;22384;54.302;18.596;2022-08-11T18:42:42;3.53;;;1.75;;
36355;SDS011;22384;54.302;18.596;2022-08-11T18:45:28;4.25;;;1.70;;
36355;SDS011;22384;54.302;18.596;2022-08-11T18:48:13;3.30;;;1.98;;
36355;SDS011;22384;54.302;18.596;2022-08-11T18:51:00;3.17;;;1.90;;
36355;SDS011;22384;54.302;18.596;2022-08-11T18:53:48;4.63;;;2.20;;
36355;SDS011;22384;54.302;18.596;2022-08-11T18:56:34;5.22;;;2.10;;
36355;SDS011;22384;54.302;18.596;2022-08-11T18:59:19;3.83;;;1.90;;
36355;SDS011;22384;54.302;18.596;2022-08-11T19:02:05;3.80;;;2.10;;
36355;SDS011;22384;54.302;18.596;2022-08-11T19:04:51;2.47;;;2.03;;